sensor_id;sensor_type;location;lat;lon;timestamp;P1;durP1;ratioP1;P2;durP2;ratioP2
40012;SDS011;37387;42.672;23.334;2022-09-09T00:00:24;11.4;;;7.1;;
40012;SDS011;37387;42.672;23.334;2022-09-09T00:01:28;11.4;;;7.5;;
40012;SDS011;37387;42.672;23.334;2022-09-09T00:02:26;10.6;;;7.0;;
40012;SDS011;37387;42.672;23.334;2022-09-09T00:03:25;9.6;;;7.1;;
40012;SDS011;37387;42.672;23.334;2022-09-09T00:04:26;9.6;;;7.6;;
40012;SDS011;37387;42.672;23.334;2022-09-09T00:05:27;10.5;;;7.9;;
40012;SDS011;37387;42.672;23.334;2022-09-09T00:06:26;11.0;;;7.7;;
40012;SDS011;37387;42.672;23.334;2022-09-09T00:07:25;11.2;;;7.6;;
40012;SDS011;37387;42.672;23.334;2022-09-09T00:08:26;11.2;;;7.9;;
40012;SDS011;37387;42.672;23.334;2022-09-09T00:09:25;11.0;;;8.1;;
40012;SDS011;37387;42.672;23.334;2022-09-09T00:11:26;13.2;;;8.4;;
40012;SDS011;37387;42.672;23.334;2022-09-09T00:12:27;13.2;;;7.9;;
40012;SDS011;37387;42.672;23.334;2022-09-09T00:13:27;13.4;;;8.0;;
40012;SDS011;37387;42.672;23.334;2022-09-09T00:14:26;13.4;;;8.1;;
40012;SDS011;37387;42.672;23.334;2022-09-09T00:15:25;11.1;;;8.3;;
40012;SDS011;37387;42.672;23.334;2022-09-09T00:16:25;10.0;;;7.6;;
40012;SDS011;37387;42.672;23.334;2022-09-09T00:17:36;10.0;;;8.2;;
40012;SDS011;37387;42.672;23.334;2022-09-09T00:18:25;12.8;;;8.3;;
40012;SDS011;37387;42.672;23.334;2022-09-09T00:19:27;14.0;;;8.0;;
40012;SDS011;37387;42.672;23.334;2022-09-09T00:20:26;10.9;;;7.9;;
40012;SDS011;37387;42.672;23.334;2022-09-09T00:22:25;10.5;;;8.3;;
40012;SDS011;37387;42.672;23.334;2022-09-09T00:23:25;13.0;;;7.8;;
40012;SDS011;37387;42.672;23.334;2022-09-09T00:24:26;11.8;;;8.2;;
40012;SDS011;37387;42.672;23.334;2022-09-09T00:25:27;11.8;;;8.6;;
40012;SDS011;37387;42.672;23.334;2022-09-09T00:26:27;14.7;;;8.9;;
40012;SDS011;37387;42.672;23.334;2022-09-09T00:27:26;14.7;;;8.6;;
40012;SDS011;37387;42.672;23.334;2022-09-09T00:28:26;14.0;;;8.5;;
40012;SDS011;37387;42.672;23.334;2022-09-09T00:29:26;13.0;;;8.3;;
40012;SDS011;37387;42.672;23.334;2022-09-09T00:31:26;15.5;;;9.0;;
40012;SDS011;37387;42.672;23.334;2022-09-09T00:32:27;15.5;;;7.8;;
40012;SDS011;37387;42.672;23.334;2022-09-09T00:34:25;11.1;;;8.2;;
40012;SDS011;37387;42.672;23.334;2022-09-09T00:35:26;13.3;;;8.1;;
40012;SDS011;37387;42.672;23.334;2022-09-09T00:36:26;13.3;;;8.6;;
40012;SDS011;37387;42.672;23.334;2022-09-09T00:37:25;14.4;;;8.4;;
40012;SDS011;37387;42.672;23.334;2022-09-09T00:38:26;13.3;;;8.6;;
40012;SDS011;37387;42.672;23.334;2022-09-09T00:39:27;10.6;;;8.1;;
40012;SDS011;37387;42.672;23.334;2022-09-09T00:40:27;10.6;;;9.0;;
40012;SDS011;37387;42.672;23.334;2022-09-09T00:41:28;13.6;;;9.1;;
40012;SDS011;37387;42.672;23.334;2022-09-09T00:42:26;13.6;;;8.5;;
40012;SDS011;37387;42.672;23.334;2022-09-09T00:43:27;12.2;;;9.5;;
40012;SDS011;37387;42.672;23.334;2022-09-09T00:44:27;13.5;;;9.2;;
40012;SDS011;37387;42.672;23.334;2022-09-09T00:45:33;11.8;;;8.4;;
40012;SDS011;37387;42.672;23.334;2022-09-09T00:48:27;12.9;;;8.8;;
40012;SDS011;37387;42.672;23.334;2022-09-09T00:49:30;12.9;;;8.3;;
40012;SDS011;37387;42.672;23.334;2022-09-09T00:50:30;11.4;;;8.4;;
40012;SDS011;37387;42.672;23.334;2022-09-09T00:51:29;11.4;;;8.9;;
40012;SDS011;37387;42.672;23.334;2022-09-09T00:52:29;12.5;;;8.7;;
40012;SDS011;37387;42.672;23.334;2022-09-09T00:53:29;12.3;;;9.2;;
40012;SDS011;37387;42.672;23.334;2022-09-09T00:54:28;14.3;;;9.4;;
40012;SDS011;37387;42.672;23.334;2022-09-09T00:55:27;14.3;;;9.0;;
40012;SDS011;37387;42.672;23.334;2022-09-09T00:56:26;14.4;;;9.3;;
40012;SDS011;37387;42.672;23.334;2022-09-09T00:57:27;14.3;;;9.6;;
40012;SDS011;37387;42.672;23.334;2022-09-09T00:58:26;14.3;;;8.8;;
40012;SDS011;37387;42.672;23.334;2022-09-09T00:59:28;12.9;;;9.2;;
40012;SDS011;37387;42.672;23.334;2022-09-09T01:00:27;12.5;;;9.4;;
40012;SDS011;37387;42.672;23.334;2022-09-09T01:01:26;13.3;;;8.5;;
40012;SDS011;37387;42.672;23.334;2022-09-09T01:02:27;13.3;;;8.8;;
40012;SDS011;37387;42.672;23.334;2022-09-09T01:03:29;15.2;;;9.2;;
40012;SDS011;37387;42.672;23.334;2022-09-09T01:04:28;15.2;;;8.5;;
40012;SDS011;37387;42.672;23.334;2022-09-09T01:05:29;10.8;;;8.6;;
40012;SDS011;37387;42.672;23.334;2022-09-09T01:06:28;10.8;;;9.8;;
40012;SDS011;37387;42.672;23.334;2022-09-09T01:07:26;12.9;;;9.6;;
40012;SDS011;37387;42.672;23.334;2022-09-09T01:08:31;12.9;;;8.8;;
40012;SDS011;37387;42.672;23.334;2022-09-09T01:09:27;12.9;;;8.9;;
40012;SDS011;37387;42.672;23.334;2022-09-09T01:10:29;12.8;;;9.8;;
40012;SDS011;37387;42.672;23.334;2022-09-09T01:11:28;12.3;;;8.6;;
40012;SDS011;37387;42.672;23.334;2022-09-09T01:12:29;12.3;;;8.7;;
40012;SDS011;37387;42.672;23.334;2022-09-09T01:13:27;12.1;;;9.0;;
40012;SDS011;37387;42.672;23.334;2022-09-09T01:14:32;12.5;;;9.5;;
40012;SDS011;37387;42.672;23.334;2022-09-09T01:15:27;13.1;;;9.2;;
40012;SDS011;37387;42.672;23.334;2022-09-09T01:16:27;12.6;;;9.1;;
40012;SDS011;37387;42.672;23.334;2022-09-09T01:17:28;13.6;;;9.0;;
40012;SDS011;37387;42.672;23.334;2022-09-09T01:19:30;12.9;;;8.6;;
40012;SDS011;37387;42.672;23.334;2022-09-09T01:20:28;14.3;;;9.0;;
40012;SDS011;37387;42.672;23.334;2022-09-09T01:21:30;12.6;;;8.5;;
40012;SDS011;37387;42.672;23.334;2022-09-09T01:22:29;13.6;;;9.0;;
40012;SDS011;37387;42.672;23.334;2022-09-09T01:23:31;14.0;;;8.2;;
40012;SDS011;37387;42.672;23.334;2022-09-09T01:24:29;11.5;;;9.1;;
40012;SDS011;37387;42.672;23.334;2022-09-09T01:25:29;12.3;;;9.3;;
40012;SDS011;37387;42.672;23.334;2022-09-09T01:26:28;11.9;;;8.6;;
40012;SDS011;37387;42.672;23.334;2022-09-09T01:27:27;14.0;;;9.3;;
40012;SDS011;37387;42.672;23.334;2022-09-09T01:28:27;14.0;;;9.6;;
40012;SDS011;37387;42.672;23.334;2022-09-09T01:29:27;14.1;;;9.4;;
40012;SDS011;37387;42.672;23.334;2022-09-09T01:30:27;12.1;;;9.3;;
40012;SDS011;37387;42.672;23.334;2022-09-09T01:31:30;12.1;;;9.0;;
40012;SDS011;37387;42.672;23.334;2022-09-09T01:33:27;13.9;;;9.5;;
40012;SDS011;37387;42.672;23.334;2022-09-09T01:34:28;12.8;;;9.3;;
40012;SDS011;37387;42.672;23.334;2022-09-09T01:35:31;13.0;;;9.2;;
40012;SDS011;37387;42.672;23.334;2022-09-09T01:36:29;13.0;;;9.3;;
40012;SDS011;37387;42.672;23.334;2022-09-09T01:37:27;13.4;;;9.0;;
40012;SDS011;37387;42.672;23.334;2022-09-09T01:38:28;14.5;;;9.2;;
40012;SDS011;37387;42.672;23.334;2022-09-09T01:39:27;13.5;;;9.4;;
40012;SDS011;37387;42.672;23.334;2022-09-09T01:40:27;14.7;;;9.3;;
40012;SDS011;37387;42.672;23.334;2022-09-09T01:42:28;13.3;;;8.9;;
40012;SDS011;37387;42.672;23.334;2022-09-09T01:43:28;14.4;;;8.6;;
40012;SDS011;37387;42.672;23.334;2022-09-09T01:44:28;11.8;;;8.8;;
40012;SDS011;37387;42.672;23.334;2022-09-09T01:45:28;10.5;;;8.3;;
40012;SDS011;37387;42.672;23.334;2022-09-09T01:46:28;11.8;;;8.6;;
40012;SDS011;37387;42.672;23.334;2022-09-09T01:47:28;13.3;;;7.7;;
40012;SDS011;37387;42.672;23.334;2022-09-09T01:48:28;12.4;;;8.1;;
40012;SDS011;37387;42.672;23.334;2022-09-09T01:49:28;12.4;;;8.6;;
40012;SDS011;37387;42.672;23.334;2022-09-09T01:51:28;11.1;;;7.9;;
40012;SDS011;37387;42.672;23.334;2022-09-09T01:52:28;12.1;;;8.5;;
40012;SDS011;37387;42.672;23.334;2022-09-09T01:53:28;11.2;;;8.3;;
40012;SDS011;37387;42.672;23.334;2022-09-09T01:55:29;11.1;;;8.8;;
40012;SDS011;37387;42.672;23.334;2022-09-09T01:56:31;14.8;;;9.2;;
40012;SDS011;37387;42.672;23.334;2022-09-09T01:57:30;14.3;;;8.7;;
40012;SDS011;37387;42.672;23.334;2022-09-09T01:59:34;14.8;;;9.0;;
40012;SDS011;37387;42.672;23.334;2022-09-09T02:00:28;11.5;;;8.4;;
40012;SDS011;37387;42.672;23.334;2022-09-09T02:01:32;11.4;;;9.2;;
40012;SDS011;37387;42.672;23.334;2022-09-09T02:02:30;13.2;;;8.8;;
40012;SDS011;37387;42.672;23.334;2022-09-09T02:03:28;13.2;;;8.6;;
40012;SDS011;37387;42.672;23.334;2022-09-09T02:05:30;12.3;;;9.0;;
40012;SDS011;37387;42.672;23.334;2022-09-09T02:06:30;12.9;;;8.4;;
40012;SDS011;37387;42.672;23.334;2022-09-09T02:08:30;13.4;;;9.2;;
40012;SDS011;37387;42.672;23.334;2022-09-09T02:09:29;13.4;;;8.9;;
40012;SDS011;37387;42.672;23.334;2022-09-09T02:10:30;12.4;;;8.6;;
40012;SDS011;37387;42.672;23.334;2022-09-09T02:11:29;13.1;;;8.7;;
40012;SDS011;37387;42.672;23.334;2022-09-09T02:12:28;13.1;;;8.8;;
40012;SDS011;37387;42.672;23.334;2022-09-09T02:14:30;11.9;;;8.6;;
40012;SDS011;37387;42.672;23.334;2022-09-09T02:15:29;11.9;;;8.5;;
40012;SDS011;37387;42.672;23.334;2022-09-09T02:16:30;12.9;;;8.9;;
40012;SDS011;37387;42.672;23.334;2022-09-09T02:17:30;12.9;;;9.3;;
40012;SDS011;37387;42.672;23.334;2022-09-09T02:18:30;12.3;;;8.7;;
40012;SDS011;37387;42.672;23.334;2022-09-09T02:19:29;13.6;;;9.4;;
40012;SDS011;37387;42.672;23.334;2022-09-09T02:20:29;13.2;;;8.9;;
40012;SDS011;37387;42.672;23.334;2022-09-09T02:21:29;13.2;;;9.4;;
40012;SDS011;37387;42.672;23.334;2022-09-09T02:22:29;13.5;;;8.4;;
40012;SDS011;37387;42.672;23.334;2022-09-09T02:23:29;13.1;;;9.2;;
40012;SDS011;37387;42.672;23.334;2022-09-09T02:24:29;13.7;;;9.0;;
40012;SDS011;37387;42.672;23.334;2022-09-09T02:25:29;13.7;;;8.6;;
40012;SDS011;37387;42.672;23.334;2022-09-09T02:27:29;12.1;;;9.3;;
40012;SDS011;37387;42.672;23.334;2022-09-09T02:28:29;12.1;;;8.9;;
40012;SDS011;37387;42.672;23.334;2022-09-09T02:29:30;13.1;;;8.7;;
40012;SDS011;37387;42.672;23.334;2022-09-09T02:30:29;13.4;;;8.5;;
40012;SDS011;37387;42.672;23.334;2022-09-09T02:31:29;14.1;;;9.2;;
40012;SDS011;37387;42.672;23.334;2022-09-09T02:33:30;13.9;;;9.3;;
40012;SDS011;37387;42.672;23.334;2022-09-09T02:34:29;12.3;;;8.8;;
40012;SDS011;37387;42.672;23.334;2022-09-09T02:35:29;12.3;;;9.2;;
40012;SDS011;37387;42.672;23.334;2022-09-09T02:36:31;12.8;;;9.1;;
40012;SDS011;37387;42.672;23.334;2022-09-09T02:37:30;12.8;;;8.5;;
40012;SDS011;37387;42.672;23.334;2022-09-09T02:38:29;11.2;;;8.7;;
40012;SDS011;37387;42.672;23.334;2022-09-09T02:39:29;13.6;;;9.1;;
40012;SDS011;37387;42.672;23.334;2022-09-09T02:40:29;12.4;;;8.7;;
40012;SDS011;37387;42.672;23.334;2022-09-09T02:41:30;12.9;;;8.8;;
40012;SDS011;37387;42.672;23.334;2022-09-09T02:42:29;13.8;;;8.9;;
40012;SDS011;37387;42.672;23.334;2022-09-09T02:43:31;13.8;;;8.6;;
40012;SDS011;37387;42.672;23.334;2022-09-09T02:44:29;11.8;;;9.0;;
40012;SDS011;37387;42.672;23.334;2022-09-09T02:46:34;15.3;;;9.4;;
40012;SDS011;37387;42.672;23.334;2022-09-09T02:47:29;13.4;;;9.0;;
40012;SDS011;37387;42.672;23.334;2022-09-09T02:48:30;13.4;;;8.8;;
40012;SDS011;37387;42.672;23.334;2022-09-09T02:49:32;13.7;;;9.0;;
40012;SDS011;37387;42.672;23.334;2022-09-09T02:50:31;12.1;;;9.1;;
40012;SDS011;37387;42.672;23.334;2022-09-09T02:51:31;10.3;;;8.4;;
40012;SDS011;37387;42.672;23.334;2022-09-09T02:52:32;10.3;;;9.3;;
40012;SDS011;37387;42.672;23.334;2022-09-09T02:53:32;12.3;;;8.8;;
40012;SDS011;37387;42.672;23.334;2022-09-09T02:54:30;12.3;;;9.6;;
40012;SDS011;37387;42.672;23.334;2022-09-09T02:55:32;13.7;;;9.4;;
40012;SDS011;37387;42.672;23.334;2022-09-09T02:56:30;12.7;;;8.8;;
40012;SDS011;37387;42.672;23.334;2022-09-09T02:58:30;12.3;;;9.0;;
40012;SDS011;37387;42.672;23.334;2022-09-09T02:59:30;15.2;;;9.1;;
40012;SDS011;37387;42.672;23.334;2022-09-09T03:00:30;15.2;;;10.3;;
40012;SDS011;37387;42.672;23.334;2022-09-09T03:01:30;17.3;;;10.1;;
40012;SDS011;37387;42.672;23.334;2022-09-09T03:02:30;17.3;;;10.3;;
40012;SDS011;37387;42.672;23.334;2022-09-09T03:03:30;15.0;;;9.9;;
40012;SDS011;37387;42.672;23.334;2022-09-09T03:04:30;14.4;;;10.2;;
40012;SDS011;37387;42.672;23.334;2022-09-09T03:05:30;13.6;;;9.2;;
40012;SDS011;37387;42.672;23.334;2022-09-09T03:06:30;13.6;;;9.5;;
40012;SDS011;37387;42.672;23.334;2022-09-09T03:07:30;16.4;;;9.7;;
40012;SDS011;37387;42.672;23.334;2022-09-09T03:08:30;14.0;;;9.2;;
40012;SDS011;37387;42.672;23.334;2022-09-09T03:10:30;14.7;;;9.3;;
40012;SDS011;37387;42.672;23.334;2022-09-09T03:11:30;13.2;;;10.1;;
40012;SDS011;37387;42.672;23.334;2022-09-09T03:12:30;13.2;;;9.1;;
40012;SDS011;37387;42.672;23.334;2022-09-09T03:13:30;14.7;;;9.7;;
40012;SDS011;37387;42.672;23.334;2022-09-09T03:15:30;14.8;;;10.0;;
40012;SDS011;37387;42.672;23.334;2022-09-09T03:16:30;14.4;;;9.5;;
40012;SDS011;37387;42.672;23.334;2022-09-09T03:17:30;14.1;;;9.8;;
40012;SDS011;37387;42.672;23.334;2022-09-09T03:18:30;14.1;;;9.5;;
40012;SDS011;37387;42.672;23.334;2022-09-09T03:19:30;13.9;;;10.1;;
40012;SDS011;37387;42.672;23.334;2022-09-09T03:20:30;18.0;;;10.3;;
40012;SDS011;37387;42.672;23.334;2022-09-09T03:21:30;13.4;;;9.9;;
40012;SDS011;37387;42.672;23.334;2022-09-09T03:23:30;13.0;;;10.0;;
40012;SDS011;37387;42.672;23.334;2022-09-09T03:24:30;14.8;;;10.1;;
40012;SDS011;37387;42.672;23.334;2022-09-09T03:25:30;17.6;;;10.4;;
40012;SDS011;37387;42.672;23.334;2022-09-09T03:26:31;13.2;;;9.2;;
40012;SDS011;37387;42.672;23.334;2022-09-09T03:27:31;13.2;;;9.8;;
40012;SDS011;37387;42.672;23.334;2022-09-09T03:28:30;15.3;;;10.0;;
40012;SDS011;37387;42.672;23.334;2022-09-09T03:29:31;13.9;;;9.5;;
40012;SDS011;37387;42.672;23.334;2022-09-09T03:30:30;13.9;;;10.3;;
40012;SDS011;37387;42.672;23.334;2022-09-09T03:31:31;14.2;;;10.4;;
40012;SDS011;37387;42.672;23.334;2022-09-09T03:32:31;15.7;;;9.8;;
40012;SDS011;37387;42.672;23.334;2022-09-09T03:33:31;15.5;;;10.5;;
40012;SDS011;37387;42.672;23.334;2022-09-09T03:34:31;15.5;;;10.3;;
40012;SDS011;37387;42.672;23.334;2022-09-09T03:35:31;16.0;;;10.4;;
40012;SDS011;37387;42.672;23.334;2022-09-09T03:36:31;15.7;;;9.8;;
40012;SDS011;37387;42.672;23.334;2022-09-09T03:37:31;15.4;;;10.5;;
40012;SDS011;37387;42.672;23.334;2022-09-09T03:38:31;14.4;;;9.8;;
40012;SDS011;37387;42.672;23.334;2022-09-09T03:39:31;14.4;;;9.7;;
40012;SDS011;37387;42.672;23.334;2022-09-09T03:40:31;18.1;;;11.1;;
40012;SDS011;37387;42.672;23.334;2022-09-09T03:41:31;15.5;;;10.4;;
40012;SDS011;37387;42.672;23.334;2022-09-09T03:42:31;15.5;;;10.6;;
40012;SDS011;37387;42.672;23.334;2022-09-09T03:43:31;15.3;;;11.0;;
40012;SDS011;37387;42.672;23.334;2022-09-09T03:44:31;16.5;;;10.3;;
40012;SDS011;37387;42.672;23.334;2022-09-09T03:45:31;16.0;;;11.1;;
40012;SDS011;37387;42.672;23.334;2022-09-09T03:46:31;17.4;;;10.9;;
40012;SDS011;37387;42.672;23.334;2022-09-09T03:47:31;15.4;;;9.8;;
40012;SDS011;37387;42.672;23.334;2022-09-09T03:48:31;14.1;;;10.0;;
40012;SDS011;37387;42.672;23.334;2022-09-09T03:49:31;14.1;;;10.9;;
40012;SDS011;37387;42.672;23.334;2022-09-09T03:50:31;15.7;;;10.7;;
40012;SDS011;37387;42.672;23.334;2022-09-09T03:51:31;15.7;;;10.8;;
40012;SDS011;37387;42.672;23.334;2022-09-09T03:53:31;14.9;;;10.4;;
40012;SDS011;37387;42.672;23.334;2022-09-09T03:54:31;14.9;;;10.5;;
40012;SDS011;37387;42.672;23.334;2022-09-09T03:55:31;15.1;;;10.6;;
40012;SDS011;37387;42.672;23.334;2022-09-09T03:56:31;15.1;;;10.7;;
40012;SDS011;37387;42.672;23.334;2022-09-09T03:57:31;17.1;;;11.3;;
40012;SDS011;37387;42.672;23.334;2022-09-09T03:58:31;17.2;;;10.8;;
40012;SDS011;37387;42.672;23.334;2022-09-09T03:59:31;17.1;;;10.6;;
40012;SDS011;37387;42.672;23.334;2022-09-09T04:00:31;13.7;;;10.2;;
40012;SDS011;37387;42.672;23.334;2022-09-09T04:01:31;13.7;;;10.3;;
40012;SDS011;37387;42.672;23.334;2022-09-09T04:02:31;14.8;;;10.2;;
40012;SDS011;37387;42.672;23.334;2022-09-09T04:03:31;14.8;;;11.2;;
40012;SDS011;37387;42.672;23.334;2022-09-09T04:04:31;17.6;;;10.1;;
40012;SDS011;37387;42.672;23.334;2022-09-09T04:05:31;14.8;;;10.7;;
40012;SDS011;37387;42.672;23.334;2022-09-09T04:06:31;16.2;;;11.1;;
40012;SDS011;37387;42.672;23.334;2022-09-09T04:07:31;14.9;;;10.5;;
40012;SDS011;37387;42.672;23.334;2022-09-09T04:08:31;16.0;;;11.2;;
40012;SDS011;37387;42.672;23.334;2022-09-09T04:09:31;19.0;;;11.5;;
40012;SDS011;37387;42.672;23.334;2022-09-09T04:10:31;16.3;;;11.0;;
40012;SDS011;37387;42.672;23.334;2022-09-09T04:11:31;16.3;;;12.2;;
40012;SDS011;37387;42.672;23.334;2022-09-09T04:12:31;17.6;;;11.4;;
40012;SDS011;37387;42.672;23.334;2022-09-09T04:13:31;17.5;;;11.3;;
40012;SDS011;37387;42.672;23.334;2022-09-09T04:14:31;16.1;;;10.7;;
40012;SDS011;37387;42.672;23.334;2022-09-09T04:15:31;18.2;;;10.8;;
40012;SDS011;37387;42.672;23.334;2022-09-09T04:16:31;17.1;;;11.7;;
40012;SDS011;37387;42.672;23.334;2022-09-09T04:17:31;16.5;;;10.8;;
40012;SDS011;37387;42.672;23.334;2022-09-09T04:18:31;16.5;;;10.9;;
40012;SDS011;37387;42.672;23.334;2022-09-09T04:19:31;16.2;;;11.0;;
40012;SDS011;37387;42.672;23.334;2022-09-09T04:20:32;16.2;;;10.7;;
40012;SDS011;37387;42.672;23.334;2022-09-09T04:21:31;16.4;;;10.9;;
40012;SDS011;37387;42.672;23.334;2022-09-09T04:22:31;18.1;;;11.5;;
40012;SDS011;37387;42.672;23.334;2022-09-09T04:23:32;16.9;;;11.0;;
40012;SDS011;37387;42.672;23.334;2022-09-09T04:24:31;16.9;;;11.1;;
40012;SDS011;37387;42.672;23.334;2022-09-09T04:25:31;16.1;;;11.2;;
40012;SDS011;37387;42.672;23.334;2022-09-09T04:26:32;18.0;;;11.3;;
40012;SDS011;37387;42.672;23.334;2022-09-09T04:27:31;16.5;;;11.4;;
40012;SDS011;37387;42.672;23.334;2022-09-09T04:28:32;16.5;;;10.8;;
40012;SDS011;37387;42.672;23.334;2022-09-09T04:29:32;16.1;;;10.3;;
40012;SDS011;37387;42.672;23.334;2022-09-09T04:30:32;21.2;;;10.7;;
40012;SDS011;37387;42.672;23.334;2022-09-09T04:31:32;16.1;;;9.8;;
40012;SDS011;37387;42.672;23.334;2022-09-09T04:33:32;13.8;;;10.2;;
40012;SDS011;37387;42.672;23.334;2022-09-09T04:34:32;12.7;;;9.3;;
40012;SDS011;37387;42.672;23.334;2022-09-09T04:35:32;19.1;;;9.5;;
40012;SDS011;37387;42.672;23.334;2022-09-09T04:36:32;19.1;;;10.0;;
40012;SDS011;37387;42.672;23.334;2022-09-09T04:37:32;14.3;;;9.8;;
40012;SDS011;37387;42.672;23.334;2022-09-09T04:38:32;14.3;;;9.5;;
40012;SDS011;37387;42.672;23.334;2022-09-09T04:39:32;14.7;;;9.3;;
40012;SDS011;37387;42.672;23.334;2022-09-09T04:40:32;15.4;;;8.2;;
40012;SDS011;37387;42.672;23.334;2022-09-09T04:41:32;13.8;;;8.8;;
40012;SDS011;37387;42.672;23.334;2022-09-09T04:42:34;15.1;;;8.0;;
40012;SDS011;37387;42.672;23.334;2022-09-09T04:43:32;15.1;;;8.3;;
40012;SDS011;37387;42.672;23.334;2022-09-09T04:44:32;15.0;;;8.4;;
40012;SDS011;37387;42.672;23.334;2022-09-09T04:45:32;15.0;;;7.7;;
40012;SDS011;37387;42.672;23.334;2022-09-09T04:46:32;14.7;;;7.8;;
40012;SDS011;37387;42.672;23.334;2022-09-09T04:47:32;12.1;;;7.9;;
40012;SDS011;37387;42.672;23.334;2022-09-09T04:48:32;12.1;;;8.7;;
40012;SDS011;37387;42.672;23.334;2022-09-09T04:49:32;15.7;;;8.4;;
40012;SDS011;37387;42.672;23.334;2022-09-09T04:51:33;14.6;;;8.0;;
40012;SDS011;37387;42.672;23.334;2022-09-09T04:52:33;14.6;;;8.2;;
40012;SDS011;37387;42.672;23.334;2022-09-09T04:53:33;11.8;;;8.4;;
40012;SDS011;37387;42.672;23.334;2022-09-09T04:54:33;15.0;;;9.0;;
40012;SDS011;37387;42.672;23.334;2022-09-09T04:55:33;12.0;;;8.3;;
40012;SDS011;37387;42.672;23.334;2022-09-09T04:56:33;15.2;;;9.2;;
40012;SDS011;37387;42.672;23.334;2022-09-09T04:57:34;15.2;;;8.3;;
40012;SDS011;37387;42.672;23.334;2022-09-09T04:58:33;10.5;;;8.2;;
40012;SDS011;37387;42.672;23.334;2022-09-09T04:59:33;10.5;;;8.1;;
40012;SDS011;37387;42.672;23.334;2022-09-09T05:00:33;10.7;;;7.1;;
40012;SDS011;37387;42.672;23.334;2022-09-09T05:02:36;11.0;;;6.6;;
40012;SDS011;37387;42.672;23.334;2022-09-09T05:03:33;9.9;;;6.9;;
40012;SDS011;37387;42.672;23.334;2022-09-09T05:04:33;11.8;;;7.2;;
40012;SDS011;37387;42.672;23.334;2022-09-09T05:05:33;11.8;;;6.7;;
40012;SDS011;37387;42.672;23.334;2022-09-09T05:06:34;11.2;;;7.2;;
40012;SDS011;37387;42.672;23.334;2022-09-09T05:07:34;11.2;;;7.1;;
40012;SDS011;37387;42.672;23.334;2022-09-09T05:08:34;10.0;;;6.8;;
40012;SDS011;37387;42.672;23.334;2022-09-09T05:09:34;14.5;;;7.0;;
40012;SDS011;37387;42.672;23.334;2022-09-09T05:10:35;14.5;;;6.8;;
40012;SDS011;37387;42.672;23.334;2022-09-09T05:11:34;11.3;;;7.4;;
40012;SDS011;37387;42.672;23.334;2022-09-09T05:12:34;11.4;;;7.2;;
40012;SDS011;37387;42.672;23.334;2022-09-09T05:13:34;11.4;;;7.3;;
40012;SDS011;37387;42.672;23.334;2022-09-09T05:14:34;13.9;;;6.8;;
40012;SDS011;37387;42.672;23.334;2022-09-09T05:15:35;10.3;;;7.1;;
40012;SDS011;37387;42.672;23.334;2022-09-09T05:16:35;11.9;;;7.0;;
40012;SDS011;37387;42.672;23.334;2022-09-09T05:17:35;9.5;;;7.1;;
40012;SDS011;37387;42.672;23.334;2022-09-09T05:19:35;9.2;;;6.3;;
40012;SDS011;37387;42.672;23.334;2022-09-09T05:20:35;9.2;;;7.0;;
40012;SDS011;37387;42.672;23.334;2022-09-09T05:21:35;9.0;;;6.8;;
40012;SDS011;37387;42.672;23.334;2022-09-09T05:22:36;9.8;;;6.9;;
40012;SDS011;37387;42.672;23.334;2022-09-09T05:23:36;8.7;;;6.8;;
40012;SDS011;37387;42.672;23.334;2022-09-09T05:25:36;10.0;;;6.7;;
40012;SDS011;37387;42.672;23.334;2022-09-09T05:26:36;8.5;;;7.3;;
40012;SDS011;37387;42.672;23.334;2022-09-09T05:27:36;11.9;;;6.8;;
40012;SDS011;37387;42.672;23.334;2022-09-09T05:28:36;9.4;;;7.0;;
40012;SDS011;37387;42.672;23.334;2022-09-09T05:29:37;11.0;;;6.5;;
40012;SDS011;37387;42.672;23.334;2022-09-09T05:30:37;9.0;;;6.7;;
40012;SDS011;37387;42.672;23.334;2022-09-09T05:31:37;9.0;;;7.3;;
40012;SDS011;37387;42.672;23.334;2022-09-09T05:32:37;9.8;;;6.5;;
40012;SDS011;37387;42.672;23.334;2022-09-09T05:33:38;9.8;;;6.6;;
40012;SDS011;37387;42.672;23.334;2022-09-09T05:34:37;13.1;;;5.7;;
40012;SDS011;37387;42.672;23.334;2022-09-09T05:35:38;8.9;;;6.4;;
40012;SDS011;37387;42.672;23.334;2022-09-09T05:36:38;8.1;;;5.3;;
40012;SDS011;37387;42.672;23.334;2022-09-09T05:37:38;8.6;;;5.7;;
40012;SDS011;37387;42.672;23.334;2022-09-09T05:38:38;24.8;;;17.0;;
40012;SDS011;37387;42.672;23.334;2022-09-09T05:39:38;7.5;;;6.0;;
40012;SDS011;37387;42.672;23.334;2022-09-09T05:40:39;7.5;;;5.7;;
40012;SDS011;37387;42.672;23.334;2022-09-09T05:41:39;7.1;;;5.1;;
40012;SDS011;37387;42.672;23.334;2022-09-09T05:42:39;6.7;;;5.9;;
40012;SDS011;37387;42.672;23.334;2022-09-09T05:43:39;11.3;;;7.1;;
40012;SDS011;37387;42.672;23.334;2022-09-09T05:44:39;13.1;;;6.9;;
40012;SDS011;37387;42.672;23.334;2022-09-09T05:45:39;13.1;;;7.7;;
40012;SDS011;37387;42.672;23.334;2022-09-09T05:46:40;10.8;;;7.1;;
40012;SDS011;37387;42.672;23.334;2022-09-09T05:47:40;10.1;;;7.5;;
40012;SDS011;37387;42.672;23.334;2022-09-09T05:48:40;11.0;;;6.6;;
40012;SDS011;37387;42.672;23.334;2022-09-09T05:49:40;7.8;;;5.5;;
40012;SDS011;37387;42.672;23.334;2022-09-09T05:50:40;11.4;;;6.3;;
40012;SDS011;37387;42.672;23.334;2022-09-09T05:51:41;8.8;;;5.5;;
40012;SDS011;37387;42.672;23.334;2022-09-09T05:52:41;8.8;;;6.3;;
40012;SDS011;37387;42.672;23.334;2022-09-09T05:53:41;9.7;;;6.5;;
40012;SDS011;37387;42.672;23.334;2022-09-09T05:54:41;8.6;;;6.2;;
40012;SDS011;37387;42.672;23.334;2022-09-09T05:55:41;8.6;;;6.4;;
40012;SDS011;37387;42.672;23.334;2022-09-09T05:56:42;10.3;;;6.3;;
40012;SDS011;37387;42.672;23.334;2022-09-09T05:57:42;10.3;;;6.1;;
40012;SDS011;37387;42.672;23.334;2022-09-09T05:58:42;7.8;;;5.9;;
40012;SDS011;37387;42.672;23.334;2022-09-09T05:59:42;8.0;;;6.3;;
40012;SDS011;37387;42.672;23.334;2022-09-09T06:00:42;8.0;;;6.0;;
40012;SDS011;37387;42.672;23.334;2022-09-09T06:01:42;9.3;;;6.5;;
40012;SDS011;37387;42.672;23.334;2022-09-09T06:02:43;9.3;;;5.8;;
40012;SDS011;37387;42.672;23.334;2022-09-09T06:04:43;7.7;;;5.6;;
40012;SDS011;37387;42.672;23.334;2022-09-09T06:06:43;6.6;;;5.4;;
40012;SDS011;37387;42.672;23.334;2022-09-09T06:07:43;6.6;;;6.1;;
40012;SDS011;37387;42.672;23.334;2022-09-09T06:08:44;10.0;;;6.0;;
40012;SDS011;37387;42.672;23.334;2022-09-09T06:09:44;10.0;;;6.3;;
40012;SDS011;37387;42.672;23.334;2022-09-09T06:10:44;8.1;;;5.8;;
40012;SDS011;37387;42.672;23.334;2022-09-09T06:11:44;9.4;;;6.3;;
40012;SDS011;37387;42.672;23.334;2022-09-09T06:12:44;9.4;;;5.6;;
40012;SDS011;37387;42.672;23.334;2022-09-09T06:13:45;8.5;;;6.1;;
40012;SDS011;37387;42.672;23.334;2022-09-09T06:14:45;8.5;;;6.4;;
40012;SDS011;37387;42.672;23.334;2022-09-09T06:15:49;9.4;;;6.0;;
40012;SDS011;37387;42.672;23.334;2022-09-09T06:16:45;8.5;;;5.8;;
40012;SDS011;37387;42.672;23.334;2022-09-09T06:17:45;8.1;;;5.3;;
40012;SDS011;37387;42.672;23.334;2022-09-09T06:18:45;7.7;;;5.9;;
40012;SDS011;37387;42.672;23.334;2022-09-09T06:19:46;8.3;;;5.5;;
40012;SDS011;37387;42.672;23.334;2022-09-09T06:20:56;8.4;;;5.8;;
40012;SDS011;37387;42.672;23.334;2022-09-09T06:21:46;8.4;;;5.6;;
40012;SDS011;37387;42.672;23.334;2022-09-09T06:22:46;6.3;;;5.2;;
40012;SDS011;37387;42.672;23.334;2022-09-09T06:23:47;6.3;;;6.2;;
40012;SDS011;37387;42.672;23.334;2022-09-09T06:24:47;8.9;;;5.5;;
40012;SDS011;37387;42.672;23.334;2022-09-09T06:25:47;7.9;;;5.6;;
40012;SDS011;37387;42.672;23.334;2022-09-09T06:26:47;7.4;;;5.3;;
40012;SDS011;37387;42.672;23.334;2022-09-09T06:27:48;7.4;;;5.2;;
40012;SDS011;37387;42.672;23.334;2022-09-09T06:28:48;7.4;;;5.6;;
40012;SDS011;37387;42.672;23.334;2022-09-09T06:29:48;8.8;;;5.4;;
40012;SDS011;37387;42.672;23.334;2022-09-09T06:30:48;9.0;;;6.4;;
40012;SDS011;37387;42.672;23.334;2022-09-09T06:31:48;9.0;;;6.5;;